Time;durP1;ratioP1;P1;durP2;ratioP2;P2;SDS_P1;SDS_P2;PMS_P1;PMS_P2;Temp;Humidity;BMP_temperature;BMP_pressure;BME280_temperature;BME280_humidity;BME280_pressure;Samples;Min_cycle;Max_cycle;Signal;HPM_P1;HPM_P2
2023/10/09 00:01:01;;;;;;;14.15;5.20;;;;;;;;;;4229223;28;20048;-79
2023/10/09 00:03:06;;;;;;;12.88;4.55;;;;;;;;;;4215422;28;20054;-78
2023/10/09 00:05:19;;;;;;;12.52;5.05;;;;;;;;;;4225954;28;20138;-80
2023/10/09 00:07:23;;;;;;;13.95;4.88;;;;;;;;;;4215580;28;20059;-79
2023/10/09 00:09:32;;;;;;;14.80;5.95;;;;;;;;;;4225889;28;20147;-79
2023/10/09 00:11:41;;;;;;;14.70;5.28;;;;;;;;;;4232011;28;20097;-79
2023/10/09 00:13:50;;;;;;;16.95;5.47;;;;;;;;;;4226353;28;20051;-80
2023/10/09 00:15:56;;;;;;;13.25;4.88;;;;;;;;;;4219264;28;20043;-79
2023/10/09 00:17:59;;;;;;;11.57;4.78;;;;;;;;;;4231408;28;20051;-79
2023/10/09 00:20:17;;;;;;;12.43;4.70;;;;;;;;;;4231286;28;20052;-80
2023/10/09 00:22:28;;;;;;;15.68;5.20;;;;;;;;;;4231711;28;20046;-81
2023/10/09 00:24:31;;;;;;;17.17;5.70;;;;;;;;;;4231792;28;20053;-79
2023/10/09 00:26:43;;;;;;;13.68;5.22;;;;;;;;;;4230552;28;20043;-79
2023/10/09 00:28:47;;;;;;;16.17;5.47;;;;;;;;;;4231941;28;20040;-80
2023/10/09 00:30:52;;;;;;;17.45;5.18;;;;;;;;;;4231805;28;20052;-81
2023/10/09 00:32:59;;;;;;;15.55;5.03;;;;;;;;;;4231712;28;20130;-78
2023/10/09 00:35:36;;;;;;;18.50;5.60;;;;;;;;;;4232013;28;20047;-80
2023/10/09 00:37:25;;;;;;;13.93;5.20;;;;;;;;;;4231376;28;20075;-79
2023/10/09 00:39:42;;;;;;;11.23;4.72;;;;;;;;;;4232129;28;20055;-79
2023/10/09 00:41:45;;;;;;;12.05;4.53;;;;;;;;;;4232336;28;20491;-79
2023/10/09 00:43:49;;;;;;;18.13;5.03;;;;;;;;;;4232255;28;20065;-82
2023/10/09 00:45:52;;;;;;;16.23;5.45;;;;;;;;;;4237806;28;20051;-80
2023/10/09 00:48:01;;;;;;;16.27;4.93;;;;;;;;;;4246369;28;20550;-80
2023/10/09 00:50:21;;;;;;;19.17;5.50;;;;;;;;;;4237736;28;20043;-82
2023/10/09 00:52:31;;;;;;;16.23;4.97;;;;;;;;;;4230004;28;20057;-80
2023/10/09 00:54:41;;;;;;;13.90;5.10;;;;;;;;;;4232204;28;20069;-80
2023/10/09 00:56:51;;;;;;;17.55;5.13;;;;;;;;;;4231993;28;20044;-80
2023/10/09 00:58:56;;;;;;;14.98;5.03;;;;;;;;;;4230130;28;20055;-79
2023/10/09 01:00:59;;;;;;;15.00;4.80;;;;;;;;;;4224592;28;20047;-79
2023/10/09 01:03:18;;;;;;;11.38;4.72;;;;;;;;;;4233349;28;20136;-79
2023/10/09 01:05:21;;;;;;;14.07;5.30;;;;;;;;;;4236229;28;20488;-78
2023/10/09 01:07:25;;;;;;;16.00;4.88;;;;;;;;;;4243364;28;20103;-79
2023/10/09 01:09:28;;;;;;;15.25;4.82;;;;;;;;;;4244713;28;20043;-79
2023/10/09 01:11:30;;;;;;;14.40;4.78;;;;;;;;;;4246967;28;20040;-78
2023/10/09 01:13:41;;;;;;;14.65;5.38;;;;;;;;;;4247225;28;20048;-80
2023/10/09 01:15:45;;;;;;;13.73;4.80;;;;;;;;;;4220976;28;20560;-78
2023/10/09 01:17:47;;;;;;;11.93;4.70;;;;;;;;;;4234787;28;20505;-78
2023/10/09 01:19:55;;;;;;;19.17;5.07;;;;;;;;;;4234825;28;20447;-80
2023/10/09 01:22:03;;;;;;;12.27;4.47;;;;;;;;;;4233865;28;20493;-79
2023/10/09 01:24:08;;;;;;;19.48;5.35;;;;;;;;;;4234802;28;20515;-80
2023/10/09 01:26:11;;;;;;;16.40;4.50;;;;;;;;;;4234650;28;20469;-80
2023/10/09 01:28:15;;;;;;;18.40;5.00;;;;;;;;;;4234549;28;20051;-79
2023/10/09 01:30:16;;;;;;;17.20;4.93;;;;;;;;;;4234602;28;20135;-78
2023/10/09 01:32:19;;;;;;;15.68;4.63;;;;;;;;;;4233584;28;20082;-78
2023/10/09 01:34:24;;;;;;;14.02;4.65;;;;;;;;;;4234641;28;20052;-78
2023/10/09 01:36:31;;;;;;;15.65;4.93;;;;;;;;;;4234839;28;20485;-79
2023/10/09 01:38:41;;;;;;;19.63;4.90;;;;;;;;;;4234617;28;20532;-81
2023/10/09 01:40:45;;;;;;;16.08;5.25;;;;;;;;;;4233794;28;20371;-80
2023/10/09 01:42:54;;;;;;;16.63;5.53;;;;;;;;;;4219778;28;20051;-80
2023/10/09 01:44:58;;;;;;;16.13;4.80;;;;;;;;;;4234479;28;20469;-79
2023/10/09 01:46:59;;;;;;;14.88;4.88;;;;;;;;;;4233919;28;20466;-81
2023/10/09 01:49:09;;;;;;;14.82;4.45;;;;;;;;;;4233136;28;20105;-80
2023/10/09 01:51:17;;;;;;;15.23;5.03;;;;;;;;;;4232927;28;20497;-78
2023/10/09 01:53:22;;;;;;;13.90;4.72;;;;;;;;;;4234215;28;20481;-80
2023/10/09 01:55:33;;;;;;;15.20;4.47;;;;;;;;;;4234159;28;20093;-80
2023/10/09 01:57:39;;;;;;;15.02;5.38;;;;;;;;;;4232837;28;20044;-79
2023/10/09 01:59:44;;;;;;;14.70;4.57;;;;;;;;;;4234239;28;20081;-79
2023/10/09 02:01:47;;;;;;;15.32;5.10;;;;;;;;;;4233856;28;20044;-78
2023/10/09 02:03:51;;;;;;;12.52;4.18;;;;;;;;;;4234326;28;20104;-79
2023/10/09 02:05:53;;;;;;;20.00;5.18;;;;;;;;;;4233644;28;20044;-80
2023/10/09 02:07:58;;;;;;;15.27;4.75;;;;;;;;;;4234026;28;20055;-80
2023/10/09 02:10:00;;;;;;;18.63;5.53;;;;;;;;;;4234217;28;20062;-79
2023/10/09 02:12:02;;;;;;;13.60;4.80;;;;;;;;;;4234028;28;20297;-80
2023/10/09 02:14:18;;;;;;;16.92;5.68;;;;;;;;;;4239912;28;20393;-79
2023/10/09 02:16:28;;;;;;;14.13;5.10;;;;;;;;;;4233825;28;20048;-80
2023/10/09 02:18:52;;;;;;;15.85;4.57;;;;;;;;;;4233882;28;20477;-81
2023/10/09 02:21:12;;;;;;;15.90;5.20;;;;;;;;;;4233251;28;20051;-81
2023/10/09 02:23:14;;;;;;;19.27;5.30;;;;;;;;;;4234053;28;20134;-80
2023/10/09 02:25:20;;;;;;;13.52;4.93;;;;;;;;;;4233656;28;20039;-79
2023/10/09 02:29:42;;;;;;;17.23;5.43;;;;;;;;;;4233830;28;20040;-80
2023/10/09 02:31:47;;;;;;;18.02;5.43;;;;;;;;;;4233344;28;20096;-80
2023/10/09 02:33:51;;;;;;;15.27;5.03;;;;;;;;;;4233634;28;20050;-79
2023/10/09 02:35:54;;;;;;;13.85;4.88;;;;;;;;;;4234096;28;20054;-80
2023/10/09 02:37:59;;;;;;;14.85;5.22;;;;;;;;;;4233808;28;20114;-79
2023/10/09 02:40:08;;;;;;;16.95;4.97;;;;;;;;;;4233253;28;20055;-78
2023/10/09 02:42:23;;;;;;;17.23;4.72;;;;;;;;;;4232981;28;20071;-80
2023/10/09 02:44:26;;;;;;;13.55;4.80;;;;;;;;;;4233898;28;20124;-80
2023/10/09 02:46:34;;;;;;;22.63;5.07;;;;;;;;;;4233688;28;20051;-82
2023/10/09 02:48:36;;;;;;;22.52;6.03;;;;;;;;;;4233421;28;20048;-80
2023/10/09 02:50:42;;;;;;;15.95;5.00;;;;;;;;;;4233881;28;20142;-79
2023/10/09 02:52:47;;;;;;;19.67;5.00;;;;;;;;;;4233065;28;20070;-78
2023/10/09 02:54:59;;;;;;;21.77;5.00;;;;;;;;;;4233195;28;20043;-80
2023/10/09 02:57:07;;;;;;;21.65;4.82;;;;;;;;;;4233072;28;20104;-79
2023/10/09 02:59:09;;;;;;;15.23;4.90;;;;;;;;;;4233155;28;20048;-78
2023/10/09 03:01:13;;;;;;;18.77;5.07;;;;;;;;;;4231237;28;20097;-78
2023/10/09 03:03:18;;;;;;;18.33;5.03;;;;;;;;;;4232768;28;20044;-79
2023/10/09 03:05:20;;;;;;;17.13;5.25;;;;;;;;;;4233154;28;20489;-79
2023/10/09 03:07:25;;;;;;;23.45;5.00;;;;;;;;;;4232692;28;20105;-80
2023/10/09 03:09:28;;;;;;;25.45;5.50;;;;;;;;;;4233567;28;20100;-78
2023/10/09 03:11:32;;;;;;;16.25;4.70;;;;;;;;;;4232137;28;20051;-78
2023/10/09 03:13:34;;;;;;;21.60;4.75;;;;;;;;;;4232717;28;20092;-78
2023/10/09 16:59:49;;;;;;;19.65;4.13;;;;;;;;;;4233675;27;20427;-85
2023/10/09 17:01:51;;;;;;;17.23;4.53;;;;;;;;;;4232548;28;20091;-85
2023/10/09 17:03:57;;;;;;;21.88;4.65;;;;;;;;;;4230409;28;20063;-85
2023/10/09 17:06:04;;;;;;;19.33;4.30;;;;;;;;;;4235529;28;20115;-85
2023/10/09 17:08:09;;;;;;;20.48;4.55;;;;;;;;;;4242155;28;20502;-86
2023/10/09 17:10:15;;;;;;;20.60;4.30;;;;;;;;;;4235043;28;20074;-89
2023/10/09 17:12:18;;;;;;;26.48;4.18;;;;;;;;;;4236509;28;20066;-88
2023/10/09 17:14:25;;;;;;;27.42;7.65;;;;;;;;;;4222363;28;20400;-82
2023/10/09 17:16:29;;;;;;;18.52;4.57;;;;;;;;;;4227189;28;20051;-80
2023/10/09 17:18:31;;;;;;;23.83;5.97;;;;;;;;;;4227292;28;20048;-82
2023/10/09 17:20:38;;;;;;;20.05;5.38;;;;;;;;;;4229187;28;20051;-86
2023/10/09 17:22:42;;;;;;;20.10;5.10;;;;;;;;;;4227271;28;20481;-83
2023/10/09 17:24:45;;;;;;;21.48;4.68;;;;;;;;;;4227080;28;20052;-84
2023/10/09 17:26:50;;;;;;;20.15;5.07;;;;;;;;;;4228161;28;20050;-82
2023/10/09 17:28:53;;;;;;;21.90;4.30;;;;;;;;;;4224000;28;20044;-87
2023/10/09 17:31:00;;;;;;;20.42;4.80;;;;;;;;;;4224425;28;20059;-80
2023/10/09 17:33:04;;;;;;;16.27;4.40;;;;;;;;;;4231057;28;20091;-83
